Main page
METAR-TAF:

METAR-TAF

Airports :

Kolding Lufthavn

Kolding, Denmark

latitude: 55-26N, longitude: 009-20E, elevation: 44 m

Current weather observation

The report was made 29 minutes ago, at 18:50 UTC
Wind 9 kt from the South/Southwest
Temperature 15°C
Humidity 88%
Pressure 1009 hPa

METAR: EKVD 141850Z AUTO 20009KT //// ///////// 15/13 Q1009

Time: 21:19 (19:19 UTC)

Forecast

The report was made 11 hours and 18 minutes ago, at 08:01 UTC
Forecast valid from 14 at 09 UTC to 14 at 15 UTC
Wind 10 kt from the South/Southwest
Visibility 10 km or more
Scattered clouds at a height of 3000 ft
Temporary
from 14 at 09 UTC to 14 at 15 UTC
Wind 15 kt from the South/Southwest with gusts up to 25 kt
Visibility: 4000 m
Scattered clouds at a height of 2000 ft, Cumulonimbus.
rain showers,

TAF: EKVD 140801Z 1409/1415 20010KT 9999 SCT030 TEMPO 1409/1415 20015G25KT 4000 SHRA SCT020CB

Weather observations and forecasts of more than 4000 airports (METAR and TAF reports).

The available stations are represented by yellow and red dots on the map.

Hover mouse over dot to see the name of the station.

Then click to see weather observations and forecasts.

To change the map : click on the green buttons with a black cross to zoom in, on the green button with a dash to zoom out, or on the green arrows for adjacent maps.


METAR-TAF: